createdAt,value
2023-03-27T00:00:33.476Z,4.46
2023-03-27T00:05:35.869Z,4.35
2023-03-27T00:10:39.882Z,4.30
2023-03-27T00:15:42.480Z,4.22
2023-03-27T00:20:44.599Z,4.15
2023-03-27T00:25:50.410Z,4.11
2023-03-27T00:30:52.885Z,4.05
2023-03-27T00:35:55.537Z,3.97
2023-03-27T00:41:00.876Z,3.83
2023-03-27T00:46:08.420Z,3.77
2023-03-27T00:51:10.886Z,3.73
2023-03-27T00:56:15.381Z,3.76
2023-03-27T01:01:19.229Z,3.70
2023-03-27T01:06:22.222Z,3.61
2023-03-27T01:11:42.957Z,3.55
2023-03-27T01:16:56.088Z,3.50
2023-03-27T01:22:32.902Z,3.52
2023-03-27T01:28:09.627Z,3.46
2023-03-27T01:33:44.825Z,3.42
2023-03-27T01:39:17.754Z,3.43
2023-03-27T01:44:43.196Z,3.42
2023-03-27T01:49:54.176Z,3.39
2023-03-27T01:55:00.574Z,3.32
2023-03-27T02:00:17.966Z,3.33
2023-03-27T02:05:28.211Z,3.35
2023-03-27T02:10:37.247Z,3.33
2023-03-27T02:15:43.464Z,3.31
2023-03-27T02:20:46.229Z,3.27
2023-03-27T02:25:52.968Z,3.21
2023-03-27T02:31:05.634Z,3.24
2023-03-27T02:36:35.248Z,3.15
2023-03-27T02:41:43.701Z,3.15
2023-03-27T02:46:53.455Z,3.06
2023-03-27T02:52:00.488Z,3.03
2023-03-27T02:57:08.018Z,2.92
2023-03-27T03:02:16.544Z,2.86
2023-03-27T03:07:19.025Z,2.79
2023-03-27T03:12:22.258Z,2.84
2023-03-27T03:17:24.822Z,2.86
2023-03-27T03:22:26.968Z,2.89
2023-03-27T03:27:30.598Z,2.84
2023-03-27T03:32:32.697Z,2.81
2023-03-27T03:37:35.021Z,2.65
2023-03-27T03:42:44.733Z,2.50
2023-03-27T03:47:47.370Z,2.36
2023-03-27T03:52:49.086Z,2.31
2023-03-27T03:57:52.787Z,2.25
2023-03-27T04:02:54.880Z,2.10
2023-03-27T04:07:57.669Z,2.00
2023-03-27T04:13:01.114Z,1.88
2023-03-27T04:18:04.202Z,1.83
2023-03-27T04:23:06.070Z,1.71
2023-03-27T04:28:09.542Z,1.63
2023-03-27T04:33:12.263Z,1.49
2023-03-27T04:38:14.937Z,1.44
2023-03-27T04:43:18.557Z,1.36
2023-03-27T04:48:20.845Z,1.22
2023-03-27T04:53:22.983Z,1.28
2023-03-27T04:58:26.311Z,1.15
2023-03-27T05:03:28.162Z,1.00
2023-03-27T05:08:30.569Z,0.94
2023-03-27T05:13:33.912Z,0.89
2023-03-27T05:18:36.123Z,0.88
2023-03-27T05:23:38.360Z,0.98
2023-03-27T05:28:41.511Z,0.92
2023-03-27T05:33:43.627Z,1.10
2023-03-27T05:38:45.767Z,1.06
2023-03-27T05:43:51.031Z,1.11
2023-03-27T05:48:53.040Z,1.21
2023-03-27T05:53:55.468Z,1.68
2023-03-27T05:58:58.832Z,1.87
2023-03-27T06:04:01.116Z,2.18
2023-03-27T06:09:04.176Z,2.18
2023-03-27T06:14:07.695Z,2.42
2023-03-27T06:19:09.995Z,2.40
2023-03-27T06:24:12.102Z,2.40
2023-03-27T06:29:16.275Z,2.39
2023-03-27T06:34:18.422Z,2.40
2023-03-27T06:39:20.561Z,2.44
2023-03-27T06:44:24.247Z,2.52
2023-03-27T06:49:26.229Z,2.71
2023-03-27T06:54:28.795Z,3.36
2023-03-27T06:59:32.446Z,3.36
2023-03-27T07:04:34.522Z,3.44
2023-03-27T07:09:38.788Z,3.52
2023-03-27T07:14:43.730Z,3.73
2023-03-27T07:19:45.476Z,4.06
2023-03-27T07:24:50.675Z,4.16
2023-03-27T07:29:54.375Z,4.20
2023-03-27T07:34:56.692Z,3.81
2023-03-27T07:40:00.840Z,3.95
2023-03-27T07:45:04.890Z,4.33
2023-03-27T07:50:08.133Z,3.91
2023-03-27T07:55:11.291Z,3.90
2023-03-27T08:00:16.658Z,3.84
2023-03-27T08:05:19.468Z,4.16
2023-03-27T08:10:21.672Z,4.24
2023-03-27T08:15:25.554Z,3.93
2023-03-27T08:20:27.923Z,3.65
2023-03-27T08:25:30.555Z,3.55
2023-03-27T08:30:36.704Z,3.79
2023-03-27T08:35:38.528Z,4.06
2023-03-27T08:40:46.732Z,4.51
2023-03-27T08:45:56.753Z,4.63
2023-03-27T08:51:02.496Z,4.13
2023-03-27T08:56:05.283Z,5.12
2023-03-27T09:01:19.254Z,4.78
2023-03-27T09:06:26.938Z,4.71
2023-03-27T09:11:47.385Z,4.68
2023-03-27T09:16:55.629Z,5.00
2023-03-27T09:22:05.171Z,5.44
2023-03-27T09:27:15.911Z,5.53
2023-03-27T09:32:19.544Z,5.93
2023-03-27T09:37:21.617Z,6.73
2023-03-27T09:42:28.735Z,6.53
2023-03-27T09:47:37.243Z,10.88
2023-03-27T09:52:40.308Z,9.24
2023-03-27T09:57:42.424Z,8.97
2023-03-27T10:02:45.907Z,8.15
2023-03-27T10:07:48.469Z,8.48
2023-03-27T10:12:55.401Z,9.65
2023-03-27T10:18:01.305Z,10.85
2023-03-27T10:23:08.878Z,12.95
2023-03-27T10:28:18.711Z,12.95
2023-03-27T10:33:37.680Z,10.06
2023-03-27T10:38:42.536Z,7.40
2023-03-27T10:43:47.472Z,6.58
2023-03-27T10:49:00.270Z,6.09
2023-03-27T10:54:10.075Z,6.09
2023-03-27T10:59:16.678Z,6.01
2023-03-27T11:04:23.594Z,5.99
2023-03-27T11:09:34.029Z,9.16
2023-03-27T11:14:45.759Z,10.99
2023-03-27T11:19:53.789Z,9.96
2023-03-27T11:25:00.618Z,9.18
2023-03-27T11:30:24.831Z,7.75
2023-03-27T11:35:33.967Z,6.40
2023-03-27T11:40:40.198Z,6.82
2023-03-27T11:45:48.669Z,7.95
2023-03-27T11:50:59.646Z,7.19
2023-03-27T11:56:17.583Z,7.10
2023-03-27T12:01:28.237Z,8.43
2023-03-27T12:06:36.753Z,7.86
2023-03-27T12:11:43.176Z,8.14
2023-03-27T12:17:09.835Z,7.86
2023-03-27T12:22:24.696Z,7.86
2023-03-27T12:27:37.184Z,7.09
2023-03-27T12:33:04.789Z,7.32
2023-03-27T12:38:16.152Z,6.93
2023-03-27T12:43:27.787Z,5.94
2023-03-27T12:48:29.936Z,5.59
2023-03-27T12:53:51.261Z,4.97
2023-03-27T12:58:55.364Z,6.03
2023-03-27T13:04:19.141Z,6.54
2023-03-27T13:09:47.300Z,7.36
2023-03-27T13:15:17.833Z,7.05
2023-03-27T13:20:33.140Z,7.10
2023-03-27T13:25:52.941Z,7.49
2023-03-27T13:30:56.581Z,8.30
2023-03-27T13:36:10.738Z,9.28
2023-03-27T13:41:59.894Z,9.25
2023-03-27T13:47:21.265Z,8.15
2023-03-27T13:52:46.007Z,7.20
2023-03-27T13:58:06.243Z,6.66
2023-03-27T14:03:47.403Z,6.49
2023-03-27T14:09:02.216Z,7.00
2023-03-27T14:14:29.136Z,7.05
2023-03-27T14:20:18.720Z,7.47
2023-03-27T14:25:24.301Z,6.86
2023-03-27T14:30:29.334Z,7.39
2023-03-27T14:35:35.981Z,7.44
2023-03-27T14:40:43.160Z,7.32
2023-03-27T14:45:46.201Z,6.73
2023-03-27T14:50:54.824Z,6.39
2023-03-27T14:56:01.331Z,6.23
2023-03-27T15:01:04.748Z,6.04
2023-03-27T15:06:14.879Z,6.08
2023-03-27T15:11:21.245Z,5.94
2023-03-27T15:16:26.151Z,5.95
2023-03-27T15:21:33.945Z,5.90
2023-03-27T15:26:36.892Z,5.63
2023-03-27T15:31:39.124Z,5.32
2023-03-27T15:36:45.964Z,5.48
2023-03-27T15:41:52.091Z,6.01
2023-03-27T15:46:56.040Z,5.80
2023-03-27T15:52:01.114Z,5.54
2023-03-27T15:57:10.487Z,5.66
2023-03-27T16:02:17.149Z,5.90
2023-03-27T16:07:24.101Z,5.81
2023-03-27T16:12:30.838Z,5.97
2023-03-27T16:17:37.893Z,5.82
2023-03-27T16:22:41.308Z,5.84
2023-03-27T16:27:47.527Z,5.75
2023-03-27T16:32:49.928Z,5.64
2023-03-27T16:37:53.587Z,5.69
2023-03-27T16:42:55.697Z,5.49
2023-03-27T16:47:58.095Z,4.87
2023-03-27T16:53:01.623Z,4.50
2023-03-27T16:58:03.950Z,4.42
2023-03-27T17:03:06.014Z,4.48
2023-03-27T17:08:09.673Z,4.37
2023-03-27T17:13:12.383Z,4.26
2023-03-27T17:18:15.027Z,4.11
2023-03-27T17:23:19.012Z,4.15
2023-03-27T17:28:21.248Z,4.16
2023-03-27T17:33:24.234Z,4.14
2023-03-27T17:38:28.046Z,4.09
2023-03-27T17:43:30.106Z,4.07
2023-03-27T17:48:32.604Z,3.96
2023-03-27T17:53:37.522Z,3.81
2023-03-27T17:58:39.512Z,3.73
2023-03-27T18:03:41.779Z,3.69
2023-03-27T18:08:45.643Z,3.83
2023-03-27T18:13:47.977Z,3.93
2023-03-27T18:18:50.107Z,3.95
2023-03-27T18:23:53.989Z,3.80
2023-03-27T18:28:56.438Z,3.62
2023-03-27T18:33:58.735Z,3.45
2023-03-27T18:39:01.954Z,3.33
2023-03-27T18:44:03.832Z,3.21
2023-03-27T18:49:17.347Z,3.06
2023-03-27T18:54:22.107Z,2.91
2023-03-27T18:59:24.403Z,2.83
2023-03-27T19:04:26.262Z,2.73
2023-03-27T19:09:40.855Z,2.67
2023-03-27T19:14:43.591Z,2.51
2023-03-27T19:19:46.604Z,2.46
2023-03-27T19:24:50.077Z,2.33
2023-03-27T19:29:52.586Z,2.20
2023-03-27T19:34:54.858Z,2.16
2023-03-27T19:39:58.668Z,2.12
2023-03-27T19:45:00.476Z,2.12
2023-03-27T19:50:02.520Z,2.02
2023-03-27T19:55:06.248Z,2.02
2023-03-27T20:00:09.768Z,1.97
2023-03-27T20:05:11.946Z,1.94
2023-03-27T20:10:15.374Z,1.97
2023-03-27T20:15:17.602Z,2.04
2023-03-27T20:20:20.118Z,2.00
2023-03-27T20:25:23.632Z,2.01
2023-03-27T20:30:26.177Z,2.11
2023-03-27T20:35:28.370Z,2.27
2023-03-27T20:40:37.040Z,2.37
2023-03-27T20:45:51.137Z,2.41
2023-03-27T20:50:53.700Z,2.43
2023-03-27T20:56:03.086Z,2.40
2023-03-27T21:01:07.054Z,2.29
2023-03-27T21:06:12.412Z,2.14
2023-03-27T21:11:16.388Z,2.28
2023-03-27T21:16:18.160Z,2.16
2023-03-27T21:21:20.548Z,2.28
2023-03-27T21:26:23.637Z,2.44
2023-03-27T21:31:26.352Z,2.36
2023-03-27T21:36:29.716Z,1.57
2023-03-27T21:41:33.499Z,1.41
2023-03-27T21:46:35.796Z,1.23
2023-03-27T21:51:38.142Z,1.22
2023-03-27T21:56:41.785Z,1.14
2023-03-27T22:01:44.193Z,1.25
2023-03-27T22:06:46.774Z,1.41
2023-03-27T22:11:50.446Z,1.44
2023-03-27T22:16:52.709Z,1.41
2023-03-27T22:21:54.642Z,1.45
2023-03-27T22:26:57.992Z,1.45
2023-03-27T22:32:00.420Z,1.54
2023-03-27T22:37:02.578Z,1.49
2023-03-27T22:42:06.024Z,1.42
2023-03-27T22:47:07.740Z,1.40
2023-03-27T22:52:10.090Z,1.45
2023-03-27T22:57:13.271Z,1.43
2023-03-27T23:02:15.412Z,1.40
2023-03-27T23:07:17.607Z,1.37
2023-03-27T23:12:21.132Z,1.26
2023-03-27T23:17:23.214Z,1.27
2023-03-27T23:22:25.357Z,1.27
2023-03-27T23:27:30.925Z,1.31
2023-03-27T23:32:33.047Z,1.31
2023-03-27T23:37:35.367Z,1.27
2023-03-27T23:42:38.899Z,1.35
2023-03-27T23:47:41.023Z,1.36
2023-03-27T23:52:43.009Z,1.34
2023-03-27T23:57:46.473Z,1.24
